createdAt,value
2017-12-03T00:01:48.903Z,56.90
2017-12-03T00:04:17.474Z,56.40
2017-12-03T00:06:46.040Z,53.90
2017-12-03T00:09:14.913Z,56.00
2017-12-03T00:11:43.752Z,53.00
2017-12-03T00:14:12.572Z,56.60
2017-12-03T00:16:41.569Z,56.10
2017-12-03T00:19:10.384Z,54.10
2017-12-03T00:21:39.185Z,55.20
2017-12-03T00:24:07.968Z,57.90
2017-12-03T00:26:37.149Z,60.10
2017-12-03T00:29:06.628Z,58.60
2017-12-03T00:31:35.519Z,61.90
2017-12-03T00:34:04.752Z,64.20
2017-12-03T00:36:33.784Z,59.10
2017-12-03T00:39:02.716Z,59.10
2017-12-03T00:41:31.685Z,58.50
2017-12-03T00:44:00.330Z,56.90
2017-12-03T00:46:29.419Z,56.30
2017-12-03T00:48:58.399Z,56.10
2017-12-03T00:51:27.971Z,63.30
2017-12-03T00:53:56.593Z,63.30
2017-12-03T00:56:25.918Z,67.10
2017-12-03T00:58:55.069Z,68.20
2017-12-03T01:01:24.509Z,64.90
2017-12-03T01:03:53.302Z,64.90
2017-12-03T01:06:22.183Z,62.10
2017-12-03T01:08:52.305Z,57.20
2017-12-03T01:11:21.747Z,60.40
2017-12-03T01:13:50.892Z,60.60
2017-12-03T01:16:20.499Z,63.90
2017-12-03T01:18:49.706Z,59.70
2017-12-03T01:21:19.310Z,59.70
2017-12-03T01:23:47.909Z,58.00
2017-12-03T01:26:16.155Z,60.10
2017-12-03T01:28:44.397Z,59.20
2017-12-03T01:31:12.749Z,59.50
2017-12-03T01:33:41.012Z,58.00
2017-12-03T01:36:09.260Z,57.60
2017-12-03T01:38:37.528Z,60.00
2017-12-03T01:41:05.792Z,63.00
2017-12-03T01:43:34.036Z,63.50
2017-12-03T01:46:02.308Z,61.50
2017-12-03T01:48:30.572Z,59.50
2017-12-03T01:50:58.812Z,58.30
2017-12-03T01:53:27.093Z,56.40
2017-12-03T01:55:55.370Z,58.60
2017-12-03T01:58:23.621Z,60.00
2017-12-03T02:00:51.975Z,60.30
2017-12-03T02:03:21.120Z,61.30
2017-12-03T02:05:49.412Z,61.30
2017-12-03T02:08:18.079Z,58.00
2017-12-03T02:10:46.328Z,58.20
2017-12-03T02:13:14.827Z,58.00
2017-12-03T02:15:43.096Z,58.20
2017-12-03T02:18:11.346Z,56.40
2017-12-03T02:20:39.589Z,55.20
2017-12-03T02:23:08.291Z,55.10
2017-12-03T02:25:36.537Z,55.10
2017-12-03T02:28:05.180Z,54.30
2017-12-03T02:30:33.469Z,54.30
2017-12-03T02:33:01.715Z,53.80
2017-12-03T02:35:29.947Z,53.30
2017-12-03T02:37:58.595Z,54.90
2017-12-03T02:40:26.841Z,54.90
2017-12-03T02:42:55.075Z,55.80
2017-12-03T02:45:23.344Z,57.60
2017-12-03T02:47:51.580Z,57.40
2017-12-03T02:50:19.828Z,55.80
2017-12-03T02:52:48.190Z,55.50
2017-12-03T02:55:16.428Z,56.30
2017-12-03T02:57:44.680Z,55.70
2017-12-03T03:00:12.947Z,56.70
2017-12-03T03:05:15.785Z,58.60
2017-12-03T03:07:44.027Z,57.30
2017-12-03T03:10:12.268Z,56.10
2017-12-03T03:12:40.943Z,56.00
2017-12-03T03:15:09.189Z,56.00
2017-12-03T03:17:37.424Z,56.90
2017-12-03T03:20:05.701Z,56.30
2017-12-03T03:22:34.018Z,55.10
2017-12-03T03:25:02.270Z,60.10
2017-12-03T03:27:30.527Z,63.50
2017-12-03T03:29:58.778Z,66.70
2017-12-03T03:32:27.347Z,70.00
2017-12-03T03:34:55.621Z,70.00
2017-12-03T03:37:23.971Z,72.10
2017-12-03T03:39:53.489Z,73.70
2017-12-03T03:42:22.696Z,73.40
2017-12-03T03:44:50.948Z,70.70
2017-12-03T03:47:19.188Z,67.10
2017-12-03T03:49:47.838Z,65.30
2017-12-03T03:52:16.859Z,65.30
2017-12-03T03:54:45.501Z,59.80
2017-12-03T03:57:14.096Z,59.80
2017-12-03T03:59:42.352Z,59.50
2017-12-03T04:02:10.619Z,61.20
2017-12-03T04:04:38.895Z,61.70
2017-12-03T04:07:07.127Z,64.60
2017-12-03T04:09:35.786Z,64.90
2017-12-03T04:12:04.093Z,64.90
2017-12-03T04:14:32.337Z,64.20
2017-12-03T04:17:00.582Z,66.00
2017-12-03T04:19:28.858Z,67.10
2017-12-03T04:21:57.113Z,65.10
2017-12-03T04:24:25.363Z,65.10
2017-12-03T04:26:53.621Z,66.90
2017-12-03T04:29:21.868Z,65.10
2017-12-03T04:31:50.115Z,65.10
2017-12-03T04:34:18.396Z,65.70
2017-12-03T04:36:46.650Z,68.70
2017-12-03T04:39:15.113Z,69.40
2017-12-03T04:41:43.679Z,70.50
2017-12-03T04:44:11.926Z,72.10
2017-12-03T04:46:40.185Z,72.10
2017-12-03T04:49:08.535Z,71.20
2017-12-03T04:51:36.765Z,69.80
2017-12-03T04:54:05.435Z,68.30
2017-12-03T04:56:33.685Z,70.10
2017-12-03T04:59:01.929Z,70.90
2017-12-03T05:01:30.204Z,72.80
2017-12-03T05:03:58.462Z,72.80
2017-12-03T05:06:26.706Z,73.70
2017-12-03T05:08:55.585Z,73.20
2017-12-03T05:11:23.858Z,71.60
2017-12-03T05:13:52.105Z,67.80
2017-12-03T05:16:20.372Z,66.90
2017-12-03T05:18:48.622Z,68.00
2017-12-03T05:21:16.864Z,70.30
2017-12-03T05:23:45.116Z,68.50
2017-12-03T05:26:14.083Z,65.50
2017-12-03T05:28:42.330Z,65.50
2017-12-03T05:31:11.493Z,63.30
2017-12-03T05:33:40.547Z,63.30
2017-12-03T05:36:08.861Z,63.30
2017-12-03T05:38:37.497Z,66.20
2017-12-03T05:41:05.741Z,66.20
2017-12-03T05:43:34.015Z,68.20
2017-12-03T05:46:02.261Z,68.30
2017-12-03T05:48:30.893Z,63.30
2017-12-03T05:50:59.169Z,63.30
2017-12-03T05:53:27.684Z,62.40
2017-12-03T05:55:55.927Z,65.50
2017-12-03T05:58:24.215Z,67.40
2017-12-03T06:00:52.473Z,66.60
2017-12-03T06:03:20.704Z,65.10
2017-12-03T06:05:49.355Z,65.30
2017-12-03T06:08:17.849Z,65.10
2017-12-03T06:10:46.124Z,62.60
2017-12-03T06:13:14.366Z,60.60
2017-12-03T06:15:42.607Z,59.80
2017-12-03T06:18:11.252Z,67.30
2017-12-03T06:20:39.495Z,67.30
2017-12-03T06:23:07.777Z,66.40
2017-12-03T06:25:36.063Z,63.90
2017-12-03T06:28:04.308Z,60.60
2017-12-03T06:30:32.850Z,59.40
2017-12-03T06:33:01.089Z,60.30
2017-12-03T06:35:29.330Z,58.60
2017-12-03T06:37:57.603Z,61.20
2017-12-03T06:40:26.955Z,63.30
2017-12-03T06:42:56.064Z,64.90
2017-12-03T06:45:24.425Z,66.00
2017-12-03T06:47:53.165Z,67.80
2017-12-03T06:50:21.805Z,63.90
2017-12-03T06:52:50.072Z,63.90
2017-12-03T06:55:18.316Z,62.40
2017-12-03T06:57:46.556Z,61.30
2017-12-03T07:00:14.824Z,58.90
2017-12-03T07:02:43.088Z,57.40
2017-12-03T07:05:11.315Z,56.00
2017-12-03T07:07:39.565Z,58.00
2017-12-03T07:10:08.199Z,61.20
2017-12-03T07:12:36.768Z,61.30
2017-12-03T07:15:05.298Z,59.50
2017-12-03T07:17:33.544Z,61.20
2017-12-03T07:20:01.790Z,60.60
2017-12-03T07:22:30.061Z,60.10
2017-12-03T07:24:58.684Z,58.00
2017-12-03T07:27:26.991Z,58.00
2017-12-03T07:29:55.239Z,56.70
2017-12-03T07:32:23.482Z,57.00
2017-12-03T07:34:51.769Z,57.90
2017-12-03T07:37:20.007Z,57.40
2017-12-03T07:39:48.976Z,56.00
2017-12-03T07:42:17.857Z,56.00
2017-12-03T07:44:50.204Z,53.90
2017-12-03T07:47:19.849Z,55.80
2017-12-03T07:49:50.174Z,58.90
2017-12-03T07:52:22.531Z,57.40
2017-12-03T07:54:51.335Z,58.30
2017-12-03T07:57:19.643Z,58.30
2017-12-03T07:59:48.092Z,58.50
2017-12-03T08:02:16.401Z,57.20
2017-12-03T08:04:45.056Z,58.00
2017-12-03T08:07:13.303Z,58.00
2017-12-03T08:09:41.553Z,57.20
2017-12-03T08:12:09.829Z,56.30
2017-12-03T08:14:38.071Z,56.10
2017-12-03T08:17:06.644Z,55.10
2017-12-03T08:19:39.874Z,56.70
2017-12-03T08:22:09.757Z,55.50
2017-12-03T08:24:38.932Z,56.10
2017-12-03T08:27:10.940Z,58.20
2017-12-03T08:29:40.709Z,54.10
2017-12-03T08:32:10.815Z,55.10
2017-12-03T08:34:43.388Z,56.00
2017-12-03T08:37:12.134Z,52.90
2017-12-03T08:39:40.845Z,55.80
2017-12-03T08:42:09.131Z,55.80
2017-12-03T08:44:37.399Z,52.70
2017-12-03T08:47:05.645Z,48.90
2017-12-03T08:49:34.293Z,45.30
2017-12-03T08:52:02.552Z,45.50
2017-12-03T08:54:30.796Z,46.40
2017-12-03T08:56:59.050Z,42.40
2017-12-03T08:59:27.696Z,41.90
2017-12-03T09:01:55.979Z,41.90
2017-12-03T09:04:24.254Z,46.80
2017-12-03T09:06:52.737Z,42.10
2017-12-03T09:09:20.984Z,44.40
2017-12-03T09:11:49.260Z,43.10
2017-12-03T09:14:17.514Z,42.80
2017-12-03T09:16:45.748Z,42.40
2017-12-03T09:19:14.008Z,41.60
2017-12-03T09:21:42.269Z,45.80
2017-12-03T09:24:10.884Z,40.30
2017-12-03T09:26:39.120Z,39.10
2017-12-03T09:29:07.405Z,43.30
2017-12-03T09:31:35.660Z,40.90
2017-12-03T09:34:03.912Z,37.90
2017-12-03T09:36:32.569Z,35.90
2017-12-03T09:39:00.825Z,35.90
2017-12-03T09:41:29.144Z,35.70
2017-12-03T09:43:57.388Z,38.70
2017-12-03T09:46:26.079Z,42.50
2017-12-03T09:48:54.853Z,31.30
2017-12-03T09:51:23.244Z,31.10
2017-12-03T09:53:51.828Z,33.50
2017-12-03T09:56:20.121Z,35.00
2017-12-03T09:58:49.119Z,28.60
2017-12-03T10:01:17.449Z,28.60
2017-12-03T10:03:45.784Z,35.70
2017-12-03T10:06:14.060Z,32.80
2017-12-03T10:08:42.735Z,33.40
2017-12-03T10:11:11.385Z,28.60
2017-12-03T10:13:39.631Z,28.60
2017-12-03T10:16:08.008Z,35.60
2017-12-03T10:18:36.248Z,30.80
2017-12-03T10:21:04.526Z,47.40
2017-12-03T10:23:33.215Z,43.00
2017-12-03T10:26:01.844Z,33.10
2017-12-03T10:28:30.093Z,33.10
2017-12-03T10:30:58.356Z,29.40
2017-12-03T10:33:26.997Z,46.40
2017-12-03T10:35:55.234Z,46.40
2017-12-03T10:38:23.654Z,37.50
2017-12-03T10:40:51.888Z,41.90
2017-12-03T10:43:20.143Z,35.00
2017-12-03T10:45:48.415Z,37.80
2017-12-03T10:48:17.072Z,30.80
2017-12-03T10:50:45.341Z,30.80
2017-12-03T10:53:13.618Z,35.00
2017-12-03T10:55:41.903Z,32.30
2017-12-03T10:58:10.488Z,28.30
2017-12-03T11:00:38.743Z,30.40
2017-12-03T11:03:07.840Z,32.80
2017-12-03T11:05:36.093Z,35.70
2017-12-03T11:08:04.394Z,37.20
2017-12-03T11:10:32.660Z,39.90
2017-12-03T11:13:00.884Z,44.30
2017-12-03T11:15:29.529Z,43.30
2017-12-03T11:17:57.779Z,43.30
2017-12-03T11:20:26.029Z,47.70
2017-12-03T11:22:54.315Z,49.00
2017-12-03T11:25:22.569Z,47.40
2017-12-03T11:27:50.917Z,40.30
2017-12-03T11:30:19.202Z,44.90
2017-12-03T11:32:47.681Z,45.50
2017-12-03T11:35:15.948Z,53.00
2017-12-03T11:37:44.540Z,50.70
2017-12-03T11:40:12.776Z,50.10
2017-12-03T11:42:41.011Z,49.30
2017-12-03T11:45:09.645Z,63.00
2017-12-03T11:47:37.883Z,62.80
2017-12-03T11:50:06.523Z,51.50
2017-12-03T11:52:34.762Z,51.50
2017-12-03T11:55:03.011Z,46.50
2017-12-03T11:57:31.658Z,44.90
2017-12-03T11:59:59.966Z,44.90
2017-12-03T12:02:28.199Z,49.00
2017-12-03T12:04:56.457Z,50.90
2017-12-03T12:07:24.712Z,54.20
2017-12-03T12:09:53.363Z,51.50
2017-12-03T12:12:21.600Z,51.50
2017-12-03T12:14:49.843Z,60.00
2017-12-03T12:17:18.524Z,61.90
2017-12-03T12:19:47.155Z,50.10
2017-12-03T12:22:15.400Z,50.10
2017-12-03T12:24:43.659Z,45.80
2017-12-03T12:27:12.296Z,68.20
2017-12-03T12:29:40.528Z,68.20
2017-12-03T12:32:08.788Z,52.60
2017-12-03T12:34:37.652Z,53.20
2017-12-03T12:37:05.896Z,53.20
2017-12-03T12:39:34.140Z,53.60
2017-12-03T12:42:02.788Z,56.40
2017-12-03T12:44:31.928Z,56.60
2017-12-03T12:47:00.365Z,64.20
2017-12-03T12:49:28.632Z,57.00
2017-12-03T12:51:56.864Z,62.60
2017-12-03T12:54:25.138Z,59.70
2017-12-03T12:56:53.359Z,69.60
2017-12-03T12:59:21.604Z,60.10
2017-12-03T13:01:49.849Z,61.50
2017-12-03T13:04:19.127Z,68.20
2017-12-03T13:06:47.616Z,68.20
2017-12-03T13:09:16.710Z,67.30
2017-12-03T13:11:44.945Z,67.30
2017-12-03T13:14:13.713Z,57.00
2017-12-03T13:16:41.952Z,59.80
2017-12-03T13:19:10.633Z,67.40
2017-12-03T13:21:38.936Z,67.60
2017-12-03T13:24:07.171Z,77.90
2017-12-03T13:26:35.436Z,66.40
2017-12-03T13:29:03.710Z,72.10
2017-12-03T13:31:32.195Z,60.60
2017-12-03T13:34:00.810Z,57.00
2017-12-03T13:36:29.069Z,58.90
2017-12-03T13:38:57.430Z,52.70
2017-12-03T13:41:25.648Z,68.30
2017-12-03T13:43:53.927Z,62.40
2017-12-03T13:46:23.016Z,55.20
2017-12-03T13:48:51.365Z,55.20
2017-12-03T13:51:19.673Z,54.90
2017-12-03T13:53:47.902Z,70.90
2017-12-03T13:56:16.169Z,61.30
2017-12-03T13:58:44.511Z,61.30
2017-12-03T14:01:12.771Z,51.40
2017-12-03T14:03:41.021Z,56.40
2017-12-03T14:06:09.264Z,52.30
2017-12-03T14:08:37.516Z,49.80
2017-12-03T14:11:05.757Z,51.10
2017-12-03T14:13:34.007Z,55.10
2017-12-03T14:16:02.299Z,59.70
2017-12-03T14:18:30.555Z,53.80
2017-12-03T14:20:58.789Z,59.50
2017-12-03T14:23:27.062Z,58.20
2017-12-03T14:25:55.310Z,51.80
2017-12-03T14:28:23.541Z,54.80
2017-12-03T14:30:51.816Z,59.80
2017-12-03T14:33:20.127Z,59.40
2017-12-03T14:35:48.494Z,55.70
2017-12-03T14:38:17.026Z,55.70
2017-12-03T14:40:45.479Z,52.00
2017-12-03T14:43:14.124Z,51.80
2017-12-03T14:45:42.400Z,51.50
2017-12-03T14:48:10.662Z,60.80
2017-12-03T14:50:38.904Z,63.00
2017-12-03T14:53:07.198Z,55.70
2017-12-03T14:55:35.647Z,53.60
2017-12-03T14:58:04.031Z,54.20
2017-12-03T15:00:32.408Z,57.40
2017-12-03T15:03:00.771Z,68.90
2017-12-03T15:05:30.192Z,65.80
2017-12-03T15:07:58.795Z,59.40
2017-12-03T15:10:27.200Z,59.70
2017-12-03T15:12:55.497Z,57.70
2017-12-03T15:15:23.817Z,56.00
2017-12-03T15:17:52.087Z,58.80
2017-12-03T15:20:20.724Z,63.30
2017-12-03T15:22:48.989Z,63.30
2017-12-03T15:25:17.455Z,64.00
2017-12-03T15:27:46.523Z,70.00
2017-12-03T15:30:15.775Z,61.90
2017-12-03T15:32:44.716Z,61.50
2017-12-03T15:35:12.971Z,68.50
2017-12-03T15:37:41.504Z,65.10
2017-12-03T15:40:11.080Z,57.30
2017-12-03T15:42:39.782Z,59.70
2017-12-03T15:45:08.432Z,64.60
2017-12-03T15:47:36.703Z,64.60
2017-12-03T15:50:05.153Z,61.90
2017-12-03T15:52:33.471Z,60.60
2017-12-03T15:55:01.838Z,56.90
2017-12-03T15:57:30.194Z,55.40
2017-12-03T15:59:58.804Z,58.60
2017-12-03T16:02:27.485Z,65.10
2017-12-03T16:04:55.757Z,65.10
2017-12-03T16:07:23.996Z,63.70
2017-12-03T16:09:52.513Z,61.50
2017-12-03T16:12:20.809Z,56.90
2017-12-03T16:14:49.083Z,58.30
2017-12-03T16:17:17.343Z,60.30
2017-12-03T16:19:45.615Z,60.80
2017-12-03T16:22:13.882Z,58.60
2017-12-03T16:24:42.174Z,58.20
2017-12-03T16:27:10.442Z,59.20
2017-12-03T16:29:38.700Z,69.40
2017-12-03T16:32:06.990Z,59.40
2017-12-03T16:34:35.251Z,69.20
2017-12-03T16:37:03.489Z,57.70
2017-12-03T16:39:32.234Z,73.60
2017-12-03T16:42:00.477Z,73.40
2017-12-03T16:44:28.724Z,59.40
2017-12-03T16:46:57.399Z,75.00
2017-12-03T16:49:25.667Z,75.00
2017-12-03T16:51:54.890Z,66.20
2017-12-03T16:54:23.217Z,80.20
2017-12-03T16:56:51.500Z,63.30
2017-12-03T16:59:19.767Z,64.20
2017-12-03T17:01:48.100Z,58.30
2017-12-03T17:04:16.752Z,66.60
2017-12-03T17:06:45.081Z,66.60
2017-12-03T17:09:13.362Z,56.10
2017-12-03T17:11:41.633Z,61.50
2017-12-03T17:14:09.901Z,55.10
2017-12-03T17:16:38.225Z,55.70
2017-12-03T17:19:06.503Z,51.20
2017-12-03T17:21:34.782Z,61.00
2017-12-03T17:24:03.037Z,57.00
2017-12-03T17:26:31.320Z,66.40
2017-12-03T17:28:59.580Z,70.30
2017-12-03T17:31:27.849Z,64.60
2017-12-03T17:33:56.129Z,58.50
2017-12-03T17:36:24.421Z,60.80
2017-12-03T17:38:52.672Z,61.90
2017-12-03T17:41:20.931Z,61.30
2017-12-03T17:43:51.248Z,54.60
2017-12-03T17:46:19.514Z,58.80
2017-12-03T17:48:47.825Z,56.90
2017-12-03T17:51:16.871Z,58.00
2017-12-03T17:53:45.553Z,53.90
2017-12-03T17:56:13.953Z,53.90
2017-12-03T17:58:42.286Z,54.60
2017-12-03T18:01:10.545Z,52.90
2017-12-03T18:03:38.816Z,51.50
2017-12-03T18:06:07.066Z,54.20
2017-12-03T18:08:35.325Z,51.70
2017-12-03T18:11:03.989Z,53.90
2017-12-03T18:13:32.225Z,53.90
2017-12-03T18:16:00.477Z,52.90
2017-12-03T18:18:28.748Z,50.50
2017-12-03T18:20:56.993Z,53.80
2017-12-03T18:23:25.225Z,53.80
2017-12-03T18:25:53.589Z,52.30
2017-12-03T18:28:22.234Z,53.50
2017-12-03T18:30:54.587Z,53.50
2017-12-03T18:33:22.852Z,53.80
2017-12-03T18:35:51.121Z,52.70
2017-12-03T18:38:19.400Z,53.00
2017-12-03T18:40:47.670Z,53.90
2017-12-03T18:43:15.912Z,55.40
2017-12-03T18:45:44.213Z,54.10
2017-12-03T18:48:12.456Z,53.30
2017-12-03T18:50:41.119Z,55.40
2017-12-03T18:53:09.391Z,55.40
2017-12-03T18:55:37.641Z,56.00
2017-12-03T18:58:05.917Z,60.00
2017-12-03T19:00:34.144Z,60.30
2017-12-03T19:03:02.787Z,61.70
2017-12-03T19:05:31.085Z,61.70
2017-12-03T19:07:59.323Z,60.30
2017-12-03T19:10:27.598Z,60.30
2017-12-03T19:12:55.841Z,59.80
2017-12-03T19:15:24.091Z,58.20
2017-12-03T19:17:52.443Z,58.00
2017-12-03T19:20:20.700Z,56.00
2017-12-03T19:22:48.957Z,55.20
2017-12-03T19:25:17.198Z,54.60
2017-12-03T19:27:45.448Z,53.50
2017-12-03T19:30:13.936Z,53.60
2017-12-03T19:32:42.200Z,53.50
2017-12-03T19:35:10.470Z,53.60
2017-12-03T19:37:38.705Z,53.20
2017-12-03T19:40:07.040Z,52.90
2017-12-03T19:42:35.315Z,52.40
2017-12-03T19:45:03.560Z,52.70
2017-12-03T19:47:31.816Z,52.70
2017-12-03T19:50:00.118Z,52.60
2017-12-03T19:52:28.444Z,53.20
2017-12-03T19:54:57.088Z,52.90
2017-12-03T19:57:25.364Z,52.90
2017-12-03T19:59:53.689Z,52.70
2017-12-03T20:02:21.970Z,52.70
2017-12-03T20:04:50.629Z,52.10
2017-12-03T20:07:19.366Z,52.10
2017-12-03T20:09:47.663Z,51.80
2017-12-03T20:12:16.182Z,52.10
2017-12-03T20:14:44.429Z,52.00
2017-12-03T20:17:12.684Z,52.10
2017-12-03T20:19:40.976Z,55.40
2017-12-03T20:22:09.288Z,55.70
2017-12-03T20:24:37.514Z,55.50
2017-12-03T20:27:06.031Z,54.80
2017-12-03T20:29:34.320Z,54.20
2017-12-03T20:32:02.684Z,53.60
2017-12-03T20:34:31.012Z,54.20
2017-12-03T20:36:59.268Z,53.90
2017-12-03T20:39:27.911Z,53.30
2017-12-03T20:41:56.465Z,53.30
2017-12-03T20:44:24.728Z,53.20
2017-12-03T20:46:53.267Z,53.50
2017-12-03T20:49:22.152Z,55.10
2017-12-03T20:51:51.139Z,55.70
2017-12-03T20:54:19.401Z,55.70
2017-12-03T20:56:47.656Z,55.70
2017-12-03T20:59:15.893Z,57.70
2017-12-03T21:01:44.694Z,68.50
2017-12-03T21:04:13.331Z,63.30
2017-12-03T21:06:42.327Z,57.60
2017-12-03T21:09:10.593Z,57.60
2017-12-03T21:11:38.833Z,59.70
2017-12-03T21:14:07.661Z,62.10
2017-12-03T21:16:35.916Z,63.50
2017-12-03T21:19:04.169Z,62.60
2017-12-03T21:21:32.412Z,63.10
2017-12-03T21:24:00.718Z,64.40
2017-12-03T21:26:28.975Z,57.40
2017-12-03T21:28:57.616Z,54.90
2017-12-03T21:31:25.883Z,54.90
2017-12-03T21:33:54.125Z,61.00
2017-12-03T21:36:22.763Z,65.10
2017-12-03T21:38:51.583Z,65.10
2017-12-03T21:41:19.819Z,66.00
2017-12-03T21:43:48.083Z,57.30
2017-12-03T21:46:16.371Z,61.90
2017-12-03T21:48:44.618Z,58.60
2017-12-03T21:51:12.873Z,56.10
2017-12-03T21:53:41.549Z,53.90
2017-12-03T21:56:09.852Z,54.10
2017-12-03T21:58:38.098Z,53.50
2017-12-03T22:01:06.385Z,52.60
2017-12-03T22:03:35.044Z,50.90
2017-12-03T22:06:03.319Z,50.90
2017-12-03T22:08:31.584Z,49.60
2017-12-03T22:10:59.830Z,54.20
2017-12-03T22:13:28.100Z,55.70
2017-12-03T22:15:56.346Z,53.60
2017-12-03T22:18:24.988Z,54.20
2017-12-03T22:20:53.264Z,54.20
2017-12-03T22:23:21.760Z,54.20
2017-12-03T22:25:50.008Z,53.20
2017-12-03T22:28:18.291Z,53.30
2017-12-03T22:30:46.535Z,53.20
2017-12-03T22:33:14.773Z,54.10
2017-12-03T22:35:43.476Z,53.90
2017-12-03T22:38:12.104Z,53.30
2017-12-03T22:40:40.347Z,53.30
2017-12-03T22:43:08.631Z,53.00
2017-12-03T22:45:36.870Z,52.40
2017-12-03T22:48:05.343Z,52.90
2017-12-03T22:50:33.608Z,52.60
2017-12-03T22:53:01.861Z,52.30
2017-12-03T22:55:30.110Z,52.10
2017-12-03T22:57:58.388Z,52.00
2017-12-03T23:00:33.424Z,52.00
2017-12-03T23:03:01.708Z,52.30
2017-12-03T23:05:30.234Z,52.30
2017-12-03T23:07:58.480Z,52.10
2017-12-03T23:10:26.760Z,52.00
2017-12-03T23:12:55.013Z,51.80
2017-12-03T23:15:23.257Z,51.80
2017-12-03T23:17:51.910Z,52.10
2017-12-03T23:20:20.404Z,52.10
2017-12-03T23:22:48.688Z,52.10
2017-12-03T23:25:16.975Z,52.30
2017-12-03T23:27:45.204Z,52.60
2017-12-03T23:30:13.564Z,52.70
2017-12-03T23:32:41.815Z,52.60
2017-12-03T23:35:10.461Z,53.30
2017-12-03T23:37:38.739Z,53.30
2017-12-03T23:40:06.978Z,53.30
2017-12-03T23:42:35.224Z,53.20
2017-12-03T23:45:03.896Z,53.00
2017-12-03T23:47:32.546Z,53.20
2017-12-03T23:50:01.044Z,53.20
2017-12-03T23:52:29.334Z,53.00
2017-12-03T23:54:57.587Z,52.90
2017-12-03T23:57:25.815Z,52.70
2017-12-03T23:59:54.104Z,52.60
